Sandy, OR (97055)

1:05 AM PDT on July 30, 2016 (GMT -0700)
Davis St - Gary St. | | Change Station

Elev 1037 ft 45.39 °N, 122.25 °W | Updated 13 minutes ago

Clear
Clear
61.7 °F
Feels Like 61.7 °F
N
0.0
Wind Variable Wind from SSW

Today
High -- | Low -- °F
--% Chance of Precip.
Yesterday
High -- | Low -- °F
Precip. -- in
Pressure 29.94 in
Visibility 10.0 miles
Clouds Clear
Dew Point 56 °F
Humidity 81%
Rainfall 0.00 in
Snow Depth Not available.
5:51 AM 8:38 PM
Waning Crescent, 15% visible
METAR KTTD 300753Z AUTO VRB06KT 10SM CLR 19/13 A2993 RMK AO2 SLP136 T01890128 403500161
Pressure 29.94 in
Visibility 10.0 miles
Clouds Clear
Dew Point 56 °F
Humidity 81%
Rainfall 0.00 in
Snow Depth Not available.
5:51 AM 8:38 PM
Waning Crescent, 15% visible
METAR KTTD 300753Z AUTO VRB06KT 10SM CLR 19/13 A2993 RMK AO2 SLP136 T01890128 403500161

10-Day Weather Forecast

Almanac

Astronomy

Jul. 30, 2016 Rise Set
Actual Time
Civil Twilight
Nautical Twilight
Astronomical Twilight
Moon
Length of Visible Light
Length of Day
Tomorrow will be .
, % of the Moon is Illuminated

Today's Extremes

State Highs State Lows

Community

WunderPhotos

Upload Photos

1,928,508 photos uploaded!

WunderBlog® & News

Nearby

Air Quality

  Air Quality AQ Index Pollutant
Not available.

Snow Depth

Station Depth Elevation

Earthquake Activity

City Distance Mag. Time & Date
Minimum magnitude displayed is 2.5.

Coastal Water Temperatures

Place Temperature

Stations

Nearby Weather Stations

Station Location Temp. Windchill Dew Point Humidity Wind Precip. Elev Updated Type
                   

Watches & Warnings

There are currently no watches in effect.